createdAt,value
2024-02-08T00:02:17.269Z,8.73
2024-02-08T00:07:19.538Z,8.58
2024-02-08T00:12:22.675Z,8.51
2024-02-08T00:17:24.846Z,8.48
2024-02-08T00:22:27.072Z,8.54
2024-02-08T00:27:29.358Z,8.26
2024-02-08T00:32:31.747Z,8.17
2024-02-08T00:37:34.047Z,8.62
2024-02-08T00:42:36.273Z,8.47
2024-02-08T00:47:38.730Z,8.42
2024-02-08T00:52:42.344Z,8.44
2024-02-08T00:57:44.736Z,8.47
2024-02-08T01:02:47.018Z,8.51
2024-02-08T01:07:49.350Z,8.44
2024-02-08T01:12:53.667Z,8.53
2024-02-08T01:17:55.867Z,8.70
2024-02-08T01:23:00.133Z,8.81
2024-02-08T01:28:02.464Z,9.08
2024-02-08T01:33:06.254Z,9.27
2024-02-08T01:38:09.390Z,9.11
2024-02-08T01:43:14.588Z,9.28
2024-02-08T01:48:18.170Z,9.36
2024-02-08T01:53:29.910Z,9.54
2024-02-08T01:58:34.551Z,9.63
2024-02-08T02:03:37.100Z,9.75
2024-02-08T02:08:39.956Z,9.62
2024-02-08T02:13:43.588Z,9.53
2024-02-08T02:18:45.877Z,9.40
2024-02-08T02:23:48.287Z,9.18
2024-02-08T02:28:52.442Z,9.05
2024-02-08T02:33:54.860Z,8.96
2024-02-08T02:38:57.340Z,8.94
2024-02-08T02:43:59.834Z,8.79
2024-02-08T02:49:02.227Z,8.68
2024-02-08T02:54:04.735Z,8.67
2024-02-08T02:59:06.920Z,8.74
2024-02-08T03:04:09.185Z,8.80
2024-02-08T03:09:18.897Z,8.81
2024-02-08T03:14:23.381Z,8.92
2024-02-08T03:19:30.159Z,8.94
2024-02-08T03:24:37.127Z,8.94
2024-02-08T03:29:43.230Z,9.02
2024-02-08T03:34:45.431Z,9.06
2024-02-08T03:39:48.261Z,9.10
2024-02-08T03:44:52.214Z,9.00
2024-02-08T03:49:54.676Z,9.04
2024-02-08T03:54:59.980Z,9.07
2024-02-08T04:00:02.916Z,9.06
2024-02-08T04:05:10.840Z,9.01
2024-02-08T04:10:32.786Z,9.01
2024-02-08T04:15:55.046Z,8.92
2024-02-08T04:21:17.219Z,8.95
2024-02-08T04:26:38.436Z,8.93
2024-02-08T04:31:59.231Z,8.93
2024-02-08T04:37:27.876Z,8.97
2024-02-08T04:42:48.454Z,8.88
2024-02-08T04:48:10.965Z,8.71
2024-02-08T04:53:31.558Z,8.56
2024-02-08T04:58:57.187Z,8.50
2024-02-08T05:03:59.254Z,8.60
2024-02-08T05:09:01.948Z,8.69
2024-02-08T05:14:04.149Z,8.70
2024-02-08T05:19:06.506Z,8.83
2024-02-08T05:24:10.036Z,8.98
2024-02-08T05:29:20.746Z,9.00
2024-02-08T05:34:27.250Z,9.09
2024-02-08T05:39:30.039Z,8.93
2024-02-08T05:44:33.747Z,8.99
2024-02-08T05:49:36.672Z,8.97
2024-02-08T05:54:41.701Z,8.91
2024-02-08T05:59:46.508Z,8.91
2024-02-08T06:05:01.049Z,8.81
2024-02-08T06:10:15.478Z,8.83
2024-02-08T06:15:35.077Z,8.81
2024-02-08T06:20:42.527Z,8.61
2024-02-08T06:26:14.655Z,8.62
2024-02-08T06:31:20.204Z,8.68
2024-02-08T06:36:25.387Z,8.86
2024-02-08T06:41:47.550Z,8.99
2024-02-08T06:46:50.237Z,9.01
2024-02-08T06:52:11.212Z,9.07
2024-02-08T06:57:31.897Z,9.14
2024-02-08T07:02:52.875Z,9.26
2024-02-08T07:08:13.844Z,9.56
2024-02-08T07:13:35.038Z,9.85
2024-02-08T07:19:02.931Z,10.29
2024-02-08T07:24:28.285Z,10.29
2024-02-08T07:30:16.889Z,10.21
2024-02-08T07:35:37.535Z,10.27
2024-02-08T07:40:39.760Z,10.49
2024-02-08T07:45:49.705Z,10.46
2024-02-08T07:50:53.542Z,10.29
2024-02-08T07:56:15.974Z,10.47
2024-02-08T08:01:21.882Z,10.45
2024-02-08T08:06:24.524Z,10.51
2024-02-08T08:11:32.770Z,10.61
2024-02-08T08:16:35.240Z,10.62
2024-02-08T08:21:57.297Z,10.74
2024-02-08T08:27:08.562Z,11.42
2024-02-08T08:32:33.221Z,12.25
2024-02-08T08:37:45.753Z,12.52
2024-02-08T08:42:51.964Z,12.93
2024-02-08T08:48:01.882Z,12.36
2024-02-08T08:53:18.353Z,11.89
2024-02-08T08:58:24.029Z,11.75
2024-02-08T09:03:29.502Z,12.44
2024-02-08T09:08:44.394Z,13.34
2024-02-08T09:13:52.942Z,13.40
2024-02-08T09:19:03.797Z,13.71
2024-02-08T09:24:08.383Z,12.98
2024-02-08T09:29:13.618Z,12.83
2024-02-08T09:34:16.134Z,12.70
2024-02-08T09:39:18.756Z,12.93
2024-02-08T09:44:27.352Z,13.35
2024-02-08T09:49:36.471Z,20.73
2024-02-08T09:54:39.014Z,23.74
2024-02-08T10:00:00.650Z,27.52
2024-02-08T10:05:23.514Z,28.00
2024-02-08T10:10:28.336Z,29.90
2024-02-08T10:15:40.889Z,32.22
2024-02-08T10:20:49.031Z,31.65
2024-02-08T10:26:17.411Z,29.13
2024-02-08T10:31:30.290Z,25.09
2024-02-08T10:36:36.615Z,22.86
2024-02-08T10:41:58.439Z,23.27
2024-02-08T10:47:08.650Z,24.75
2024-02-08T10:52:18.122Z,21.47
2024-02-08T10:57:39.001Z,19.93
2024-02-08T11:03:01.743Z,19.70
2024-02-08T11:08:14.690Z,18.97
2024-02-08T11:13:30.538Z,22.05
2024-02-08T11:18:36.981Z,26.07
2024-02-08T11:23:47.534Z,31.09
2024-02-08T11:28:51.554Z,30.43
2024-02-08T11:33:56.818Z,31.46
2024-02-08T11:39:00.089Z,32.72
2024-02-08T11:44:07.236Z,31.15
2024-02-08T11:49:17.834Z,33.95
2024-02-08T11:54:24.520Z,33.86
2024-02-08T11:59:27.979Z,30.94
2024-02-08T12:04:31.021Z,25.74
2024-02-08T12:09:33.393Z,22.54
2024-02-08T12:14:40.415Z,21.03
2024-02-08T12:19:43.022Z,25.38
2024-02-08T12:24:45.348Z,23.59
2024-02-08T12:29:52.235Z,20.92
2024-02-08T12:34:58.637Z,18.70
2024-02-08T12:40:00.955Z,20.73
2024-02-08T12:45:03.359Z,22.19
2024-02-08T12:50:19.115Z,28.14
2024-02-08T12:55:31.549Z,22.66
2024-02-08T13:00:37.285Z,24.87
2024-02-08T13:05:41.028Z,21.65
2024-02-08T13:10:43.471Z,19.74
2024-02-08T13:15:45.674Z,19.48
2024-02-08T13:20:48.957Z,20.24
2024-02-08T13:25:59.117Z,20.55
2024-02-08T13:31:09.897Z,20.85
2024-02-08T13:36:12.973Z,20.17
2024-02-08T13:41:15.167Z,18.88
2024-02-08T13:46:17.875Z,17.70
2024-02-08T13:51:22.215Z,19.30
2024-02-08T13:56:24.387Z,21.51
2024-02-08T14:01:27.309Z,24.47
2024-02-08T14:06:31.186Z,26.77
2024-02-08T14:11:40.127Z,26.53
2024-02-08T14:16:46.895Z,24.98
2024-02-08T14:21:49.208Z,23.74
2024-02-08T14:26:51.367Z,23.05
2024-02-08T14:31:54.264Z,21.82
2024-02-08T14:36:58.711Z,18.57
2024-02-08T14:42:12.145Z,19.51
2024-02-08T14:47:26.692Z,21.44
2024-02-08T14:52:36.692Z,20.98
2024-02-08T14:57:43.397Z,21.85
2024-02-08T15:02:56.796Z,19.60
2024-02-08T15:08:09.760Z,17.47
2024-02-08T15:13:20.142Z,17.73
2024-02-08T15:18:31.774Z,16.07
2024-02-08T15:23:50.073Z,16.06
2024-02-08T15:28:57.216Z,15.48
2024-02-08T15:34:18.312Z,14.87
2024-02-08T15:39:37.320Z,14.59
2024-02-08T15:45:09.560Z,14.40
2024-02-08T15:50:16.872Z,14.14
2024-02-08T15:55:19.280Z,14.13
2024-02-08T16:00:40.536Z,14.04
2024-02-08T16:05:46.307Z,14.04
2024-02-08T16:10:50.954Z,13.98
2024-02-08T16:15:59.132Z,13.88
2024-02-08T16:21:06.840Z,13.91
2024-02-08T16:26:11.124Z,13.85
2024-02-08T16:31:20.066Z,13.89
2024-02-08T16:36:30.809Z,13.89
2024-02-08T16:41:35.620Z,13.91
2024-02-08T16:46:37.999Z,13.81
2024-02-08T16:51:46.350Z,13.69
2024-02-08T16:56:49.088Z,13.61
2024-02-08T17:01:54.372Z,13.45
2024-02-08T17:07:04.348Z,13.37
2024-02-08T17:12:19.293Z,13.31
2024-02-08T17:17:26.120Z,13.25
2024-02-08T17:22:31.315Z,13.38
2024-02-08T17:27:50.161Z,13.35
2024-02-08T17:32:55.229Z,13.32
2024-02-08T17:38:01.889Z,13.42
2024-02-08T17:43:10.532Z,13.51
2024-02-08T17:48:15.434Z,13.53
2024-02-08T17:53:23.368Z,13.46
2024-02-08T17:58:25.854Z,13.50
2024-02-08T18:03:28.096Z,13.44
2024-02-08T18:08:30.903Z,13.58
2024-02-08T18:13:34.282Z,13.52
2024-02-08T18:18:38.790Z,13.52
2024-02-08T18:23:46.829Z,13.47
2024-02-08T18:28:49.652Z,13.37
2024-02-08T18:33:58.564Z,13.19
2024-02-08T18:39:01.068Z,13.08
2024-02-08T18:44:05.506Z,12.97
2024-02-08T18:49:10.135Z,12.85
2024-02-08T18:54:13.177Z,12.90
2024-02-08T18:59:15.375Z,13.04
2024-02-08T19:04:20.818Z,13.01
2024-02-08T19:09:27.734Z,12.91
2024-02-08T19:14:32.533Z,12.87
2024-02-08T19:19:35.746Z,12.80
2024-02-08T19:24:39.882Z,12.57
2024-02-08T19:29:42.652Z,12.41
2024-02-08T19:34:45.221Z,12.31
2024-02-08T19:39:48.981Z,12.39
2024-02-08T19:44:55.705Z,12.28
2024-02-08T19:50:04.306Z,12.28
2024-02-08T19:55:22.059Z,12.16
2024-02-08T20:00:31.350Z,12.16
2024-02-08T20:05:48.376Z,12.03
2024-02-08T20:10:52.821Z,11.98
2024-02-08T20:15:55.107Z,11.83
2024-02-08T20:20:59.916Z,11.77
2024-02-08T20:26:02.700Z,11.66
2024-02-08T20:31:08.956Z,11.53
2024-02-08T20:36:14.966Z,11.43
2024-02-08T20:41:17.452Z,11.53
2024-02-08T20:46:19.746Z,11.93
2024-02-08T20:51:23.238Z,11.95
2024-02-08T20:56:29.503Z,12.03
2024-02-08T21:01:36.206Z,11.99
2024-02-08T21:06:38.935Z,12.00
2024-02-08T21:11:44.592Z,12.02
2024-02-08T21:16:49.924Z,12.03
2024-02-08T21:21:53.328Z,12.07
2024-02-08T21:26:55.812Z,12.13
2024-02-08T21:32:00.970Z,12.18
2024-02-08T21:37:08.173Z,12.19
2024-02-08T21:42:10.788Z,12.04
2024-02-08T21:47:13.056Z,12.00
2024-02-08T21:52:17.558Z,11.92
2024-02-08T21:57:19.773Z,11.79
2024-02-08T22:02:23.071Z,11.36
2024-02-08T22:07:25.331Z,11.23
2024-02-08T22:12:28.348Z,11.13
2024-02-08T22:17:30.899Z,11.27
2024-02-08T22:22:33.512Z,11.36
2024-02-08T22:27:36.506Z,11.41
2024-02-08T22:32:45.041Z,11.21
2024-02-08T22:37:50.076Z,11.33
2024-02-08T22:42:53.354Z,11.03
2024-02-08T22:47:55.736Z,10.72
2024-02-08T22:52:58.308Z,10.52
2024-02-08T22:58:03.141Z,10.28
2024-02-08T23:03:08.567Z,10.15
2024-02-08T23:08:17.064Z,10.10
2024-02-08T23:13:19.806Z,10.03
2024-02-08T23:18:23.322Z,9.90
2024-02-08T23:23:27.437Z,9.94
2024-02-08T23:28:29.725Z,9.89
2024-02-08T23:33:32.364Z,9.94
2024-02-08T23:38:35.500Z,9.86
2024-02-08T23:43:38.128Z,9.97
2024-02-08T23:48:40.444Z,9.99
2024-02-08T23:53:44.502Z,10.05
2024-02-08T23:58:49.872Z,10.15
